Hlavní strana
METAR-TAF:

METAR-TAF

Letiště :

Machačkala, Rusko

zeměpisná šířka: 42-49-01N, zeměpisná délka: 047-39-08E, výška: 4 m

Aktuální stav počasí

Zpráva byla vytvořena před 18 minutami, v 15:00 UTC
Východojihovýchodní vítr 2 kt
Teplota -1°C
Vlhkost vzduchu 74%
Tlak 1021 hPa
Viditelnost 10 km a více
Polojasno ve výšce 2000 ft

METAR: URML 191500Z 12001MPS 9999 SCT020 M01/M05 Q1021 R14/01//70 NOSIG RMK QFE766/1021

Čas: 18:18 (15:18 UTC)

Předpověď počasí

Zpráva byla vytvořena před 1 hodinou a 18 minutami, v 14:00 UTC
Předpověď platná od 19 v 15 UTC do 19 v 24 UTC
vítr z různých směrů 2 kt
Viditelnost: 6000 m
Zataženo ve výšce 2000 ft
Dočasný
od 19 v 15 UTC do 19 v 21 UTC
Viditelnost: 3100 m
Polojasno ve výšce 600 ft
Zataženo ve výšce 1700 ft
slabé sněžení, kouřmo

TAF: URML 191400Z 1915/1924 VRB01MPS 6000 OVC020 TEMPO 1915/1921 3100 -SN BR SCT006 OVC017

Stav a předpovědi počasí z více než 4 000 letišť (zprávy METAR a TAF).

Červené a žluté tečky na mapě představují dostupné meteorologické stanice.

Když kurzor umístíte na tečku, zobrazí se název stanice.

Pak kliknutím zobrazíte stav a předpověď počasí.

Chcete-li změnit mapu, kliknutím na zelené tlačítko se znaménkem +mapu přiblížíte, kliknutím na zelené tlačítko se znaménkem – mapu oddálíte a kliknutím na zelené šipky přejdete na sousední mapy.


METAR-TAF: